Estación Meteorológica Peña el Pijo (Robertgarden) [ 09/28/20 19:31:41 CEST ]

Fecha Hora Presion(HPa) Temp (°C) Humedad % Rocio (°C) Viento ( m/s) Direccion Lluvia 1Hora(mm) Lluvia 24H(mm) LLuvia Total(mm)
2020-Sep-25 01:09:23 1009.800 17.3 72 12.2 - N     89.61
2020-Sep-25 02:09:27 1009.700 17.0 72 11.9 - N     89.61
2020-Sep-25 03:09:28 1009.300 16.8 71 11.5 - N     89.61
2020-Sep-25 04:09:26 1009.100 16.6 69 10.9 - N     89.61
2020-Sep-25 05:09:59 1008.500 16.3 67 10.2 - N     89.61
2020-Sep-25 06:09:30 1008.000 15.6 66 9.3 - N     89.61
2020-Sep-25 07:09:16 1008.100 15.1 60 7.4 - N     89.61
2020-Sep-25 08:09:33 1007.900 14.9 60 7.2 - N     89.61
2020-Sep-25 09:08:59 1008.400 15.8 59 7.8 - N     89.61
2020-Sep-25 10:09:28 1009.000 19.1 48 7.8 - N     89.61
2020-Sep-25 11:09:25 1010.300 21.1 39 6.6 - N     89.61
2020-Sep-25 12:09:25 1011.000 22.1 35 5.8 - N     89.61
2020-Sep-25 13:09:06 1011.400 21.8 33 4.8 - N     89.61
2020-Sep-25 14:09:21 1011.300 21.4 34 4.8 - N     89.61
2020-Sep-25 15:09:40 1011.100 22.1 35 5.8 - N     89.61
2020-Sep-25 16:09:36 1011.100 22.3 34 5.6 - N     89.61
2020-Sep-25 17:09:52 1011.000 21.4 37 6.0 - N     89.61
2020-Sep-25 18:09:09 1011.100 19.6 41 6.0 - N     89.61
2020-Sep-25 19:09:28 1011.200 18.2 45 6.0 - N     89.61
2020-Sep-25 20:09:25 1011.600 16.8 47 5.4 - N     89.61
2020-Sep-25 21:09:10 1012.300 15.8 49 5.1 - N     89.61
2020-Sep-25 22:09:10 1013.000 13.9 55 5.0 - N     89.61
2020-Sep-25 23:09:57 1013.100 12.3 60 4.8 - N     89.61

Temperatura Máxima:22°    Temperatura Mínima:12°
Presión Máxima:1013.100 Hpa    Presión Mínima:1007.900 Hpa


Volver